sensor_id;sensor_type;location;lat;lon;timestamp;P1;durP1;ratioP1;P2;durP2;ratioP2
34928;SDS011;21133;48.048;7.724;2023-08-20T00:00:50;6.67;;;6.23;;
34928;SDS011;21133;48.048;7.724;2023-08-20T00:03:16;5.90;;;5.43;;
34928;SDS011;21133;48.048;7.724;2023-08-20T00:05:43;6.70;;;6.10;;
34928;SDS011;21133;48.048;7.724;2023-08-20T00:08:09;5.33;;;4.83;;
34928;SDS011;21133;48.048;7.724;2023-08-20T00:10:35;4.30;;;4.13;;
34928;SDS011;21133;48.048;7.724;2023-08-20T00:13:01;6.57;;;6.07;;
34928;SDS011;21133;48.048;7.724;2023-08-20T00:15:27;5.63;;;5.17;;
34928;SDS011;21133;48.048;7.724;2023-08-20T00:17:53;5.60;;;3.73;;
34928;SDS011;21133;48.048;7.724;2023-08-20T00:20:20;9.30;;;6.80;;
34928;SDS011;21133;48.048;7.724;2023-08-20T00:22:46;6.17;;;5.77;;
34928;SDS011;21133;48.048;7.724;2023-08-20T00:25:13;7.80;;;5.87;;
34928;SDS011;21133;48.048;7.724;2023-08-20T00:27:39;6.80;;;5.60;;
34928;SDS011;21133;48.048;7.724;2023-08-20T00:30:06;5.77;;;5.40;;
34928;SDS011;21133;48.048;7.724;2023-08-20T00:32:32;9.13;;;5.00;;
34928;SDS011;21133;48.048;7.724;2023-08-20T00:34:58;6.63;;;5.13;;
34928;SDS011;21133;48.048;7.724;2023-08-20T00:37:24;5.00;;;4.70;;
34928;SDS011;21133;48.048;7.724;2023-08-20T00:39:50;4.40;;;4.07;;
34928;SDS011;21133;48.048;7.724;2023-08-20T00:42:16;7.80;;;5.53;;
34928;SDS011;21133;48.048;7.724;2023-08-20T00:44:42;5.17;;;4.67;;
34928;SDS011;21133;48.048;7.724;2023-08-20T00:47:12;5.00;;;4.80;;
34928;SDS011;21133;48.048;7.724;2023-08-20T00:49:38;6.03;;;5.67;;
34928;SDS011;21133;48.048;7.724;2023-08-20T00:52:05;5.70;;;5.37;;
34928;SDS011;21133;48.048;7.724;2023-08-20T00:54:33;7.97;;;6.07;;
34928;SDS011;21133;48.048;7.724;2023-08-20T00:56:59;4.17;;;3.90;;
34928;SDS011;21133;48.048;7.724;2023-08-20T00:59:26;6.90;;;6.20;;
34928;SDS011;21133;48.048;7.724;2023-08-20T01:01:52;6.57;;;5.90;;
34928;SDS011;21133;48.048;7.724;2023-08-20T01:04:18;6.50;;;6.00;;
34928;SDS011;21133;48.048;7.724;2023-08-20T01:06:53;6.47;;;5.73;;
34928;SDS011;21133;48.048;7.724;2023-08-20T01:12:05;6.50;;;5.90;;
34928;SDS011;21133;48.048;7.724;2023-08-20T01:14:32;4.57;;;3.80;;
34928;SDS011;21133;48.048;7.724;2023-08-20T01:16:58;5.90;;;5.40;;
34928;SDS011;21133;48.048;7.724;2023-08-20T01:19:23;6.40;;;5.80;;
34928;SDS011;21133;48.048;7.724;2023-08-20T01:24:45;5.57;;;5.10;;
34928;SDS011;21133;48.048;7.724;2023-08-20T01:27:19;6.37;;;5.87;;
34928;SDS011;21133;48.048;7.724;2023-08-20T01:29:49;6.10;;;5.57;;
34928;SDS011;21133;48.048;7.724;2023-08-20T01:32:15;5.93;;;5.73;;
34928;SDS011;21133;48.048;7.724;2023-08-20T01:34:42;4.87;;;4.57;;
34928;SDS011;21133;48.048;7.724;2023-08-20T01:37:08;6.77;;;6.37;;
34928;SDS011;21133;48.048;7.724;2023-08-20T01:39:34;5.93;;;5.60;;
34928;SDS011;21133;48.048;7.724;2023-08-20T01:42:00;6.63;;;6.13;;
34928;SDS011;21133;48.048;7.724;2023-08-20T01:44:26;6.00;;;5.50;;
34928;SDS011;21133;48.048;7.724;2023-08-20T01:46:52;6.63;;;6.13;;
34928;SDS011;21133;48.048;7.724;2023-08-20T01:49:18;9.50;;;7.47;;
34928;SDS011;21133;48.048;7.724;2023-08-20T01:51:44;6.40;;;5.90;;
34928;SDS011;21133;48.048;7.724;2023-08-20T01:54:10;6.80;;;6.27;;
34928;SDS011;21133;48.048;7.724;2023-08-20T01:56:36;6.57;;;5.70;;
34928;SDS011;21133;48.048;7.724;2023-08-20T01:59:02;5.60;;;5.40;;
34928;SDS011;21133;48.048;7.724;2023-08-20T02:01:28;5.63;;;5.13;;
34928;SDS011;21133;48.048;7.724;2023-08-20T02:03:54;3.97;;;3.67;;
34928;SDS011;21133;48.048;7.724;2023-08-20T02:06:20;5.10;;;4.80;;
34928;SDS011;21133;48.048;7.724;2023-08-20T02:08:46;5.17;;;4.73;;
34928;SDS011;21133;48.048;7.724;2023-08-20T02:11:12;5.40;;;5.10;;
34928;SDS011;21133;48.048;7.724;2023-08-20T02:13:38;4.70;;;4.40;;
34928;SDS011;21133;48.048;7.724;2023-08-20T02:16:04;6.63;;;6.07;;
34928;SDS011;21133;48.048;7.724;2023-08-20T02:18:31;5.53;;;5.20;;
34928;SDS011;21133;48.048;7.724;2023-08-20T02:20:57;5.63;;;5.33;;
34928;SDS011;21133;48.048;7.724;2023-08-20T02:23:23;6.43;;;5.93;;
34928;SDS011;21133;48.048;7.724;2023-08-20T02:25:49;5.57;;;5.17;;
34928;SDS011;21133;48.048;7.724;2023-08-20T02:28:15;5.40;;;5.10;;
34928;SDS011;21133;48.048;7.724;2023-08-20T02:30:42;5.70;;;5.00;;
34928;SDS011;21133;48.048;7.724;2023-08-20T02:33:08;5.50;;;5.20;;
34928;SDS011;21133;48.048;7.724;2023-08-20T02:35:38;9.77;;;6.00;;
34928;SDS011;21133;48.048;7.724;2023-08-20T02:38:04;6.27;;;5.67;;
34928;SDS011;21133;48.048;7.724;2023-08-20T02:40:30;6.57;;;6.10;;
34928;SDS011;21133;48.048;7.724;2023-08-20T02:42:56;5.50;;;5.30;;
34928;SDS011;21133;48.048;7.724;2023-08-20T02:45:22;6.00;;;5.70;;
34928;SDS011;21133;48.048;7.724;2023-08-20T02:47:48;6.60;;;6.20;;
34928;SDS011;21133;48.048;7.724;2023-08-20T02:50:14;5.50;;;5.20;;
34928;SDS011;21133;48.048;7.724;2023-08-20T02:52:45;6.23;;;5.83;;
34928;SDS011;21133;48.048;7.724;2023-08-20T02:55:11;7.40;;;6.23;;
34928;SDS011;21133;48.048;7.724;2023-08-20T02:57:37;6.40;;;5.80;;
34928;SDS011;21133;48.048;7.724;2023-08-20T03:00:03;6.47;;;6.23;;
34928;SDS011;21133;48.048;7.724;2023-08-20T03:02:29;6.37;;;5.90;;
34928;SDS011;21133;48.048;7.724;2023-08-20T03:04:55;10.27;;;6.43;;
34928;SDS011;21133;48.048;7.724;2023-08-20T03:07:21;4.90;;;4.50;;
34928;SDS011;21133;48.048;7.724;2023-08-20T03:09:47;5.60;;;5.30;;
34928;SDS011;21133;48.048;7.724;2023-08-20T03:12:13;6.50;;;6.00;;
34928;SDS011;21133;48.048;7.724;2023-08-20T03:14:39;12.20;;;6.00;;
34928;SDS011;21133;48.048;7.724;2023-08-20T03:17:05;5.53;;;5.10;;
34928;SDS011;21133;48.048;7.724;2023-08-20T03:19:32;6.73;;;6.20;;
34928;SDS011;21133;48.048;7.724;2023-08-20T03:21:59;5.63;;;5.23;;
34928;SDS011;21133;48.048;7.724;2023-08-20T03:24:24;6.27;;;5.90;;
34928;SDS011;21133;48.048;7.724;2023-08-20T03:26:50;5.33;;;4.93;;
34928;SDS011;21133;48.048;7.724;2023-08-20T03:29:16;6.87;;;6.17;;
34928;SDS011;21133;48.048;7.724;2023-08-20T03:31:42;9.57;;;6.03;;
34928;SDS011;21133;48.048;7.724;2023-08-20T03:34:08;7.83;;;5.70;;
34928;SDS011;21133;48.048;7.724;2023-08-20T03:36:34;6.50;;;6.13;;
34928;SDS011;21133;48.048;7.724;2023-08-20T03:39:00;7.37;;;5.20;;
34928;SDS011;21133;48.048;7.724;2023-08-20T03:41:28;11.43;;;5.40;;
34928;SDS011;21133;48.048;7.724;2023-08-20T03:43:54;10.10;;;6.40;;
34928;SDS011;21133;48.048;7.724;2023-08-20T03:46:20;6.80;;;6.23;;
34928;SDS011;21133;48.048;7.724;2023-08-20T03:48:46;6.33;;;5.83;;
34928;SDS011;21133;48.048;7.724;2023-08-20T03:51:12;8.00;;;6.03;;
34928;SDS011;21133;48.048;7.724;2023-08-20T03:53:38;10.23;;;6.77;;
34928;SDS011;21133;48.048;7.724;2023-08-20T03:56:04;6.10;;;5.60;;
34928;SDS011;21133;48.048;7.724;2023-08-20T03:58:30;7.47;;;6.60;;
34928;SDS011;21133;48.048;7.724;2023-08-20T04:00:56;7.00;;;6.40;;
34928;SDS011;21133;48.048;7.724;2023-08-20T04:03:22;6.30;;;5.83;;
34928;SDS011;21133;48.048;7.724;2023-08-20T04:05:49;7.27;;;5.70;;
34928;SDS011;21133;48.048;7.724;2023-08-20T04:08:15;6.60;;;6.13;;
34928;SDS011;21133;48.048;7.724;2023-08-20T04:10:42;7.03;;;6.10;;
34928;SDS011;21133;48.048;7.724;2023-08-20T04:13:09;8.37;;;7.60;;
34928;SDS011;21133;48.048;7.724;2023-08-20T04:15:35;6.30;;;5.73;;
34928;SDS011;21133;48.048;7.724;2023-08-20T04:18:00;7.60;;;6.80;;
34928;SDS011;21133;48.048;7.724;2023-08-20T04:20:26;6.07;;;5.73;;
34928;SDS011;21133;48.048;7.724;2023-08-20T04:22:52;7.03;;;5.93;;
34928;SDS011;21133;48.048;7.724;2023-08-20T04:25:18;4.50;;;4.30;;
34928;SDS011;21133;48.048;7.724;2023-08-20T04:27:44;6.73;;;5.93;;
34928;SDS011;21133;48.048;7.724;2023-08-20T04:30:10;6.00;;;5.60;;
34928;SDS011;21133;48.048;7.724;2023-08-20T04:32:36;4.67;;;4.57;;
34928;SDS011;21133;48.048;7.724;2023-08-20T04:35:03;5.47;;;5.03;;
34928;SDS011;21133;48.048;7.724;2023-08-20T04:37:29;5.37;;;5.10;;
34928;SDS011;21133;48.048;7.724;2023-08-20T04:39:54;7.00;;;6.30;;
34928;SDS011;21133;48.048;7.724;2023-08-20T04:42:20;6.90;;;6.20;;
34928;SDS011;21133;48.048;7.724;2023-08-20T04:44:46;6.33;;;5.97;;
34928;SDS011;21133;48.048;7.724;2023-08-20T04:47:12;6.40;;;5.90;;
34928;SDS011;21133;48.048;7.724;2023-08-20T04:49:39;5.10;;;4.77;;
34928;SDS011;21133;48.048;7.724;2023-08-20T04:52:05;6.63;;;5.40;;
34928;SDS011;21133;48.048;7.724;2023-08-20T04:54:31;5.20;;;5.00;;
34928;SDS011;21133;48.048;7.724;2023-08-20T04:56:57;6.67;;;6.27;;
34928;SDS011;21133;48.048;7.724;2023-08-20T04:59:23;5.60;;;5.40;;
34928;SDS011;21133;48.048;7.724;2023-08-20T05:01:49;10.43;;;6.40;;
34928;SDS011;21133;48.048;7.724;2023-08-20T05:04:15;8.13;;;5.67;;
34928;SDS011;21133;48.048;7.724;2023-08-20T05:06:40;6.53;;;5.93;;
34928;SDS011;21133;48.048;7.724;2023-08-20T05:09:06;6.17;;;5.63;;
34928;SDS011;21133;48.048;7.724;2023-08-20T05:11:32;6.20;;;5.80;;
34928;SDS011;21133;48.048;7.724;2023-08-20T05:13:58;10.30;;;6.00;;
34928;SDS011;21133;48.048;7.724;2023-08-20T05:16:24;6.10;;;5.73;;
34928;SDS011;21133;48.048;7.724;2023-08-20T05:18:50;5.70;;;5.40;;
34928;SDS011;21133;48.048;7.724;2023-08-20T05:21:16;6.07;;;5.63;;
34928;SDS011;21133;48.048;7.724;2023-08-20T05:23:42;5.83;;;5.53;;
34928;SDS011;21133;48.048;7.724;2023-08-20T05:26:08;6.80;;;6.27;;
34928;SDS011;21133;48.048;7.724;2023-08-20T05:28:34;5.57;;;5.27;;
34928;SDS011;21133;48.048;7.724;2023-08-20T05:31:00;6.40;;;6.10;;
34928;SDS011;21133;48.048;7.724;2023-08-20T05:33:26;7.20;;;6.50;;
34928;SDS011;21133;48.048;7.724;2023-08-20T05:35:52;6.83;;;5.60;;
34928;SDS011;21133;48.048;7.724;2023-08-20T05:38:18;10.60;;;6.63;;
34928;SDS011;21133;48.048;7.724;2023-08-20T05:40:44;9.93;;;6.13;;
34928;SDS011;21133;48.048;7.724;2023-08-20T05:43:10;6.30;;;5.87;;
34928;SDS011;21133;48.048;7.724;2023-08-20T05:45:36;6.73;;;5.90;;
34928;SDS011;21133;48.048;7.724;2023-08-20T05:48:02;6.53;;;6.07;;
34928;SDS011;21133;48.048;7.724;2023-08-20T05:50:28;8.83;;;6.30;;
34928;SDS011;21133;48.048;7.724;2023-08-20T05:52:54;6.17;;;5.77;;
34928;SDS011;21133;48.048;7.724;2023-08-20T05:55:20;6.37;;;6.07;;
34928;SDS011;21133;48.048;7.724;2023-08-20T05:57:45;9.60;;;6.30;;
34928;SDS011;21133;48.048;7.724;2023-08-20T06:00:11;6.33;;;5.83;;
34928;SDS011;21133;48.048;7.724;2023-08-20T06:02:37;6.43;;;6.03;;
34928;SDS011;21133;48.048;7.724;2023-08-20T06:05:04;10.30;;;5.83;;
34928;SDS011;21133;48.048;7.724;2023-08-20T06:07:30;7.27;;;5.80;;
34928;SDS011;21133;48.048;7.724;2023-08-20T06:09:56;6.57;;;5.60;;
34928;SDS011;21133;48.048;7.724;2023-08-20T06:12:22;5.50;;;5.00;;
34928;SDS011;21133;48.048;7.724;2023-08-20T06:14:48;13.93;;;6.40;;
34928;SDS011;21133;48.048;7.724;2023-08-20T06:17:14;11.57;;;5.17;;
34928;SDS011;21133;48.048;7.724;2023-08-20T06:19:40;7.13;;;6.47;;
34928;SDS011;21133;48.048;7.724;2023-08-20T06:22:06;9.73;;;5.80;;
34928;SDS011;21133;48.048;7.724;2023-08-20T06:24:32;7.80;;;6.30;;
34928;SDS011;21133;48.048;7.724;2023-08-20T06:26:58;7.20;;;6.37;;
34928;SDS011;21133;48.048;7.724;2023-08-20T06:29:24;7.30;;;6.70;;
34928;SDS011;21133;48.048;7.724;2023-08-20T06:31:50;6.60;;;6.30;;
34928;SDS011;21133;48.048;7.724;2023-08-20T06:34:16;7.80;;;7.10;;
34928;SDS011;21133;48.048;7.724;2023-08-20T06:36:42;7.33;;;6.80;;
34928;SDS011;21133;48.048;7.724;2023-08-20T06:39:08;7.67;;;7.27;;
34928;SDS011;21133;48.048;7.724;2023-08-20T06:41:35;9.93;;;7.20;;
34928;SDS011;21133;48.048;7.724;2023-08-20T06:44:01;7.80;;;7.20;;
34928;SDS011;21133;48.048;7.724;2023-08-20T06:46:27;7.87;;;7.17;;
34928;SDS011;21133;48.048;7.724;2023-08-20T06:48:53;18.07;;;8.13;;
34928;SDS011;21133;48.048;7.724;2023-08-20T06:51:20;6.43;;;6.10;;
34928;SDS011;21133;48.048;7.724;2023-08-20T06:53:46;7.30;;;6.30;;
34928;SDS011;21133;48.048;7.724;2023-08-20T06:56:12;9.53;;;7.00;;
34928;SDS011;21133;48.048;7.724;2023-08-20T06:58:39;12.47;;;8.00;;
34928;SDS011;21133;48.048;7.724;2023-08-20T07:01:05;8.57;;;7.87;;
34928;SDS011;21133;48.048;7.724;2023-08-20T07:03:36;8.13;;;7.63;;
34928;SDS011;21133;48.048;7.724;2023-08-20T07:06:03;8.60;;;7.87;;
34928;SDS011;21133;48.048;7.724;2023-08-20T07:08:29;9.07;;;8.57;;
34928;SDS011;21133;48.048;7.724;2023-08-20T07:10:55;9.77;;;8.20;;
34928;SDS011;21133;48.048;7.724;2023-08-20T07:13:21;12.73;;;7.40;;
34928;SDS011;21133;48.048;7.724;2023-08-20T07:15:47;9.30;;;7.27;;
34928;SDS011;21133;48.048;7.724;2023-08-20T07:18:13;10.10;;;9.13;;
34928;SDS011;21133;48.048;7.724;2023-08-20T07:20:41;8.90;;;8.20;;
34928;SDS011;21133;48.048;7.724;2023-08-20T07:23:07;8.73;;;7.53;;
34928;SDS011;21133;48.048;7.724;2023-08-20T07:25:36;7.97;;;7.30;;
34928;SDS011;21133;48.048;7.724;2023-08-20T07:28:02;8.70;;;7.90;;
34928;SDS011;21133;48.048;7.724;2023-08-20T07:30:28;9.73;;;8.50;;
34928;SDS011;21133;48.048;7.724;2023-08-20T07:32:54;8.00;;;7.40;;
34928;SDS011;21133;48.048;7.724;2023-08-20T07:35:20;8.50;;;7.70;;
34928;SDS011;21133;48.048;7.724;2023-08-20T07:37:46;13.40;;;9.17;;
34928;SDS011;21133;48.048;7.724;2023-08-20T07:40:12;9.53;;;8.57;;
34928;SDS011;21133;48.048;7.724;2023-08-20T07:42:41;9.03;;;8.17;;
34928;SDS011;21133;48.048;7.724;2023-08-20T07:45:07;8.77;;;8.17;;
34928;SDS011;21133;48.048;7.724;2023-08-20T07:47:35;10.03;;;8.73;;
34928;SDS011;21133;48.048;7.724;2023-08-20T07:50:01;10.00;;;9.10;;
34928;SDS011;21133;48.048;7.724;2023-08-20T07:52:27;8.73;;;7.83;;
34928;SDS011;21133;48.048;7.724;2023-08-20T07:54:53;4.70;;;4.33;;
34928;SDS011;21133;48.048;7.724;2023-08-20T07:57:19;8.40;;;7.90;;
34928;SDS011;21133;48.048;7.724;2023-08-20T07:59:45;7.87;;;7.00;;
34928;SDS011;21133;48.048;7.724;2023-08-20T08:02:11;8.87;;;8.07;;
34928;SDS011;21133;48.048;7.724;2023-08-20T08:04:37;9.50;;;8.73;;
34928;SDS011;21133;48.048;7.724;2023-08-20T08:07:04;17.47;;;9.37;;
34928;SDS011;21133;48.048;7.724;2023-08-20T08:09:30;9.47;;;8.67;;
34928;SDS011;21133;48.048;7.724;2023-08-20T08:11:57;9.00;;;8.53;;
34928;SDS011;21133;48.048;7.724;2023-08-20T08:14:23;9.13;;;8.23;;
34928;SDS011;21133;48.048;7.724;2023-08-20T08:16:49;17.77;;;9.07;;
34928;SDS011;21133;48.048;7.724;2023-08-20T08:19:15;4.97;;;4.80;;
34928;SDS011;21133;48.048;7.724;2023-08-20T08:21:42;8.73;;;8.03;;
34928;SDS011;21133;48.048;7.724;2023-08-20T08:24:08;10.73;;;8.40;;
34928;SDS011;21133;48.048;7.724;2023-08-20T08:26:35;6.90;;;6.30;;
34928;SDS011;21133;48.048;7.724;2023-08-20T08:29:02;8.77;;;8.00;;
34928;SDS011;21133;48.048;7.724;2023-08-20T08:31:28;7.70;;;7.03;;
34928;SDS011;21133;48.048;7.724;2023-08-20T08:33:54;6.87;;;6.57;;
34928;SDS011;21133;48.048;7.724;2023-08-20T08:36:20;11.90;;;6.67;;
34928;SDS011;21133;48.048;7.724;2023-08-20T08:38:46;7.90;;;7.50;;
34928;SDS011;21133;48.048;7.724;2023-08-20T08:41:12;9.03;;;7.00;;
34928;SDS011;21133;48.048;7.724;2023-08-20T08:43:39;8.40;;;7.80;;
34928;SDS011;21133;48.048;7.724;2023-08-20T08:46:14;7.50;;;6.83;;
34928;SDS011;21133;48.048;7.724;2023-08-20T08:48:41;5.97;;;5.73;;
34928;SDS011;21133;48.048;7.724;2023-08-20T08:51:08;6.63;;;6.00;;
34928;SDS011;21133;48.048;7.724;2023-08-20T08:53:34;13.33;;;6.70;;
34928;SDS011;21133;48.048;7.724;2023-08-20T08:56:01;7.83;;;7.03;;
34928;SDS011;21133;48.048;7.724;2023-08-20T08:58:27;6.90;;;6.30;;
34928;SDS011;21133;48.048;7.724;2023-08-20T09:00:53;6.80;;;6.30;;
34928;SDS011;21133;48.048;7.724;2023-08-20T09:03:19;7.30;;;6.40;;
34928;SDS011;21133;48.048;7.724;2023-08-20T09:05:46;6.47;;;6.17;;
34928;SDS011;21133;48.048;7.724;2023-08-20T09:08:25;7.20;;;6.70;;
34928;SDS011;21133;48.048;7.724;2023-08-20T09:10:52;7.60;;;6.73;;
34928;SDS011;21133;48.048;7.724;2023-08-20T09:13:24;11.37;;;7.63;;
34928;SDS011;21133;48.048;7.724;2023-08-20T09:15:53;7.17;;;6.87;;
34928;SDS011;21133;48.048;7.724;2023-08-20T09:18:20;6.90;;;6.60;;
34928;SDS011;21133;48.048;7.724;2023-08-20T09:20:49;7.47;;;6.57;;
34928;SDS011;21133;48.048;7.724;2023-08-20T09:23:15;8.57;;;7.47;;
34928;SDS011;21133;48.048;7.724;2023-08-20T09:25:42;7.07;;;6.53;;
34928;SDS011;21133;48.048;7.724;2023-08-20T09:28:08;7.43;;;6.60;;
34928;SDS011;21133;48.048;7.724;2023-08-20T09:30:34;6.03;;;5.63;;
34928;SDS011;21133;48.048;7.724;2023-08-20T09:33:10;7.57;;;6.80;;
34928;SDS011;21133;48.048;7.724;2023-08-20T09:35:38;5.53;;;5.33;;
34928;SDS011;21133;48.048;7.724;2023-08-20T09:38:04;6.70;;;6.30;;
34928;SDS011;21133;48.048;7.724;2023-08-20T09:40:30;6.63;;;6.17;;
34928;SDS011;21133;48.048;7.724;2023-08-20T09:42:57;5.27;;;4.60;;
34928;SDS011;21133;48.048;7.724;2023-08-20T09:45:24;6.20;;;4.80;;
34928;SDS011;21133;48.048;7.724;2023-08-20T09:47:55;5.37;;;5.07;;
34928;SDS011;21133;48.048;7.724;2023-08-20T09:50:23;7.03;;;6.40;;
34928;SDS011;21133;48.048;7.724;2023-08-20T09:55:22;6.93;;;6.43;;
34928;SDS011;21133;48.048;7.724;2023-08-20T09:57:49;15.00;;;5.30;;
34928;SDS011;21133;48.048;7.724;2023-08-20T10:00:15;7.07;;;6.57;;
34928;SDS011;21133;48.048;7.724;2023-08-20T10:02:41;8.80;;;7.30;;
34928;SDS011;21133;48.048;7.724;2023-08-20T10:05:08;6.83;;;6.30;;
34928;SDS011;21133;48.048;7.724;2023-08-20T10:07:35;13.53;;;6.60;;
34928;SDS011;21133;48.048;7.724;2023-08-20T10:10:02;9.23;;;6.80;;
34928;SDS011;21133;48.048;7.724;2023-08-20T10:12:29;11.13;;;6.80;;
34928;SDS011;21133;48.048;7.724;2023-08-20T10:14:56;14.23;;;7.67;;
34928;SDS011;21133;48.048;7.724;2023-08-20T10:17:23;7.60;;;6.50;;
34928;SDS011;21133;48.048;7.724;2023-08-20T10:19:50;6.33;;;5.90;;
34928;SDS011;21133;48.048;7.724;2023-08-20T10:22:17;6.47;;;6.10;;
34928;SDS011;21133;48.048;7.724;2023-08-20T10:24:47;5.50;;;5.20;;
34928;SDS011;21133;48.048;7.724;2023-08-20T10:27:18;6.70;;;6.30;;
34928;SDS011;21133;48.048;7.724;2023-08-20T10:29:49;9.70;;;7.63;;
34928;SDS011;21133;48.048;7.724;2023-08-20T10:32:15;7.03;;;6.63;;
34928;SDS011;21133;48.048;7.724;2023-08-20T10:34:42;13.53;;;6.67;;
34928;SDS011;21133;48.048;7.724;2023-08-20T10:37:14;8.13;;;7.63;;
34928;SDS011;21133;48.048;7.724;2023-08-20T10:39:41;6.70;;;6.20;;
34928;SDS011;21133;48.048;7.724;2023-08-20T10:47:23;13.10;;;6.40;;
34928;SDS011;21133;48.048;7.724;2023-08-20T10:49:53;7.03;;;6.60;;
34928;SDS011;21133;48.048;7.724;2023-08-20T10:52:22;6.27;;;5.90;;
34928;SDS011;21133;48.048;7.724;2023-08-20T10:54:49;8.23;;;7.00;;
34928;SDS011;21133;48.048;7.724;2023-08-20T10:57:16;7.97;;;7.03;;
34928;SDS011;21133;48.048;7.724;2023-08-20T10:59:42;8.63;;;7.10;;
34928;SDS011;21133;48.048;7.724;2023-08-20T11:02:11;7.63;;;7.13;;
34928;SDS011;21133;48.048;7.724;2023-08-20T11:04:40;7.73;;;7.27;;
34928;SDS011;21133;48.048;7.724;2023-08-20T11:07:06;6.83;;;6.37;;
34928;SDS011;21133;48.048;7.724;2023-08-20T11:09:34;6.67;;;6.07;;
34928;SDS011;21133;48.048;7.724;2023-08-20T11:12:00;17.10;;;7.03;;
34928;SDS011;21133;48.048;7.724;2023-08-20T11:14:26;6.20;;;5.70;;
34928;SDS011;21133;48.048;7.724;2023-08-20T11:16:52;6.77;;;6.07;;
34928;SDS011;21133;48.048;7.724;2023-08-20T11:19:19;7.50;;;6.90;;
34928;SDS011;21133;48.048;7.724;2023-08-20T11:21:45;9.17;;;6.00;;
34928;SDS011;21133;48.048;7.724;2023-08-20T11:24:12;7.50;;;6.93;;
34928;SDS011;21133;48.048;7.724;2023-08-20T11:26:38;5.60;;;5.27;;
34928;SDS011;21133;48.048;7.724;2023-08-20T11:29:05;12.47;;;4.83;;
34928;SDS011;21133;48.048;7.724;2023-08-20T11:31:31;5.83;;;5.23;;
34928;SDS011;21133;48.048;7.724;2023-08-20T11:33:57;5.83;;;5.53;;
34928;SDS011;21133;48.048;7.724;2023-08-20T11:36:23;6.20;;;5.20;;
34928;SDS011;21133;48.048;7.724;2023-08-20T11:38:50;9.10;;;5.73;;
34928;SDS011;21133;48.048;7.724;2023-08-20T11:41:17;12.60;;;5.77;;
34928;SDS011;21133;48.048;7.724;2023-08-20T11:43:43;5.30;;;4.93;;
34928;SDS011;21133;48.048;7.724;2023-08-20T11:46:13;5.90;;;5.40;;
34928;SDS011;21133;48.048;7.724;2023-08-20T11:51:28;6.63;;;6.03;;
34928;SDS011;21133;48.048;7.724;2023-08-20T11:53:54;6.17;;;5.50;;
34928;SDS011;21133;48.048;7.724;2023-08-20T11:56:20;5.67;;;5.40;;
34928;SDS011;21133;48.048;7.724;2023-08-20T11:58:50;5.00;;;4.90;;
34928;SDS011;21133;48.048;7.724;2023-08-20T12:01:17;5.50;;;5.10;;
34928;SDS011;21133;48.048;7.724;2023-08-20T12:03:43;5.67;;;4.97;;
34928;SDS011;21133;48.048;7.724;2023-08-20T12:06:19;6.77;;;5.20;;
34928;SDS011;21133;48.048;7.724;2023-08-20T12:08:45;6.50;;;5.63;;
34928;SDS011;21133;48.048;7.724;2023-08-20T12:11:11;6.47;;;5.40;;
34928;SDS011;21133;48.048;7.724;2023-08-20T12:13:38;7.93;;;5.40;;
34928;SDS011;21133;48.048;7.724;2023-08-20T12:16:04;4.97;;;4.57;;
34928;SDS011;21133;48.048;7.724;2023-08-20T12:18:30;11.03;;;5.17;;
34928;SDS011;21133;48.048;7.724;2023-08-20T12:20:56;5.13;;;4.80;;
34928;SDS011;21133;48.048;7.724;2023-08-20T12:23:22;6.80;;;4.53;;
34928;SDS011;21133;48.048;7.724;2023-08-20T12:25:51;5.50;;;5.10;;
34928;SDS011;21133;48.048;7.724;2023-08-20T12:28:17;5.47;;;5.27;;
34928;SDS011;21133;48.048;7.724;2023-08-20T12:30:43;5.07;;;4.70;;
34928;SDS011;21133;48.048;7.724;2023-08-20T12:33:11;4.50;;;4.40;;
34928;SDS011;21133;48.048;7.724;2023-08-20T12:35:37;6.00;;;5.07;;
34928;SDS011;21133;48.048;7.724;2023-08-20T12:38:03;5.30;;;4.90;;
34928;SDS011;21133;48.048;7.724;2023-08-20T12:40:29;6.00;;;5.40;;
34928;SDS011;21133;48.048;7.724;2023-08-20T12:42:55;7.47;;;5.40;;
34928;SDS011;21133;48.048;7.724;2023-08-20T12:45:21;8.30;;;6.10;;
34928;SDS011;21133;48.048;7.724;2023-08-20T12:47:48;10.60;;;4.20;;
34928;SDS011;21133;48.048;7.724;2023-08-20T12:50:14;12.40;;;5.00;;
34928;SDS011;21133;48.048;7.724;2023-08-20T12:52:40;9.93;;;5.20;;
34928;SDS011;21133;48.048;7.724;2023-08-20T12:55:08;6.00;;;5.50;;
34928;SDS011;21133;48.048;7.724;2023-08-20T12:57:34;5.83;;;5.43;;
34928;SDS011;21133;48.048;7.724;2023-08-20T13:00:01;6.40;;;5.17;;
34928;SDS011;21133;48.048;7.724;2023-08-20T13:02:32;10.63;;;5.77;;
34928;SDS011;21133;48.048;7.724;2023-08-20T13:04:58;4.90;;;4.60;;
34928;SDS011;21133;48.048;7.724;2023-08-20T13:07:24;5.13;;;4.67;;
34928;SDS011;21133;48.048;7.724;2023-08-20T13:09:50;4.73;;;4.30;;
34928;SDS011;21133;48.048;7.724;2023-08-20T13:12:16;5.83;;;5.20;;
34928;SDS011;21133;48.048;7.724;2023-08-20T13:14:44;5.30;;;4.87;;
34928;SDS011;21133;48.048;7.724;2023-08-20T13:17:10;5.87;;;5.47;;
34928;SDS011;21133;48.048;7.724;2023-08-20T13:19:36;7.47;;;5.17;;
34928;SDS011;21133;48.048;7.724;2023-08-20T13:22:04;6.47;;;5.37;;
34928;SDS011;21133;48.048;7.724;2023-08-20T13:24:31;6.73;;;5.83;;
34928;SDS011;21133;48.048;7.724;2023-08-20T13:26:57;6.63;;;4.90;;
34928;SDS011;21133;48.048;7.724;2023-08-20T13:29:23;5.43;;;4.70;;
34928;SDS011;21133;48.048;7.724;2023-08-20T13:31:49;7.23;;;4.73;;
34928;SDS011;21133;48.048;7.724;2023-08-20T13:34:15;4.57;;;4.20;;
34928;SDS011;21133;48.048;7.724;2023-08-20T13:36:41;4.90;;;4.63;;
34928;SDS011;21133;48.048;7.724;2023-08-20T13:39:07;5.97;;;5.47;;
34928;SDS011;21133;48.048;7.724;2023-08-20T13:41:33;6.80;;;4.47;;
34928;SDS011;21133;48.048;7.724;2023-08-20T13:43:59;4.50;;;4.30;;
34928;SDS011;21133;48.048;7.724;2023-08-20T13:46:25;7.00;;;4.63;;
34928;SDS011;21133;48.048;7.724;2023-08-20T13:48:51;4.80;;;4.10;;
34928;SDS011;21133;48.048;7.724;2023-08-20T13:51:16;5.60;;;4.03;;
34928;SDS011;21133;48.048;7.724;2023-08-20T13:53:42;6.07;;;4.70;;
34928;SDS011;21133;48.048;7.724;2023-08-20T13:56:09;8.37;;;4.57;;
34928;SDS011;21133;48.048;7.724;2023-08-20T13:58:35;5.10;;;4.80;;
34928;SDS011;21133;48.048;7.724;2023-08-20T14:01:01;4.73;;;4.30;;
34928;SDS011;21133;48.048;7.724;2023-08-20T14:03:27;5.57;;;5.10;;
34928;SDS011;21133;48.048;7.724;2023-08-20T14:05:53;4.93;;;4.67;;
34928;SDS011;21133;48.048;7.724;2023-08-20T14:08:19;4.87;;;4.33;;
34928;SDS011;21133;48.048;7.724;2023-08-20T14:10:45;4.97;;;4.17;;
34928;SDS011;21133;48.048;7.724;2023-08-20T14:13:11;4.63;;;4.43;;
34928;SDS011;21133;48.048;7.724;2023-08-20T14:15:37;5.83;;;4.83;;
34928;SDS011;21133;48.048;7.724;2023-08-20T14:18:03;5.83;;;4.57;;
34928;SDS011;21133;48.048;7.724;2023-08-20T14:20:29;5.33;;;4.83;;
34928;SDS011;21133;48.048;7.724;2023-08-20T14:22:55;4.53;;;4.20;;
34928;SDS011;21133;48.048;7.724;2023-08-20T14:25:21;8.93;;;4.70;;
34928;SDS011;21133;48.048;7.724;2023-08-20T14:27:47;5.70;;;4.90;;
34928;SDS011;21133;48.048;7.724;2023-08-20T14:30:13;5.40;;;5.03;;
34928;SDS011;21133;48.048;7.724;2023-08-20T14:32:39;3.43;;;3.13;;
34928;SDS011;21133;48.048;7.724;2023-08-20T14:35:05;9.30;;;3.90;;
34928;SDS011;21133;48.048;7.724;2023-08-20T14:37:32;3.70;;;3.40;;
34928;SDS011;21133;48.048;7.724;2023-08-20T14:39:58;3.73;;;3.40;;
34928;SDS011;21133;48.048;7.724;2023-08-20T14:42:24;5.27;;;4.80;;
34928;SDS011;21133;48.048;7.724;2023-08-20T14:44:50;11.37;;;3.50;;
34928;SDS011;21133;48.048;7.724;2023-08-20T14:47:18;4.23;;;3.93;;
34928;SDS011;21133;48.048;7.724;2023-08-20T14:49:44;5.17;;;3.20;;
34928;SDS011;21133;48.048;7.724;2023-08-20T14:52:10;9.23;;;4.80;;
34928;SDS011;21133;48.048;7.724;2023-08-20T14:54:36;5.57;;;3.53;;
34928;SDS011;21133;48.048;7.724;2023-08-20T14:57:02;3.53;;;3.30;;